createdAt,value
2019-03-03T00:01:31.714Z,94.19
2019-03-03T00:04:01.655Z,94.64
2019-03-03T00:06:31.626Z,94.18
2019-03-03T00:09:01.815Z,94.26
2019-03-03T00:11:31.725Z,94.72
2019-03-03T00:14:01.682Z,94.76
2019-03-03T00:16:31.591Z,95.11
2019-03-03T00:19:01.601Z,94.97
2019-03-03T00:21:31.595Z,94.41
2019-03-03T00:24:01.544Z,94.68
2019-03-03T00:26:31.448Z,94.52
2019-03-03T00:29:01.370Z,94.56
2019-03-03T00:31:37.923Z,94.84
2019-03-03T00:34:08.002Z,95.08
2019-03-03T00:36:55.509Z,95.49
2019-03-03T00:39:44.374Z,95.67
2019-03-03T00:42:40.608Z,95.82
2019-03-03T00:45:37.405Z,95.30
2019-03-03T00:48:32.471Z,95.94
2019-03-03T00:51:18.656Z,95.70
2019-03-03T00:54:10.422Z,95.11
2019-03-03T00:56:46.494Z,95.14
2019-03-03T00:59:38.261Z,95.42
2019-03-03T01:02:24.450Z,95.50
2019-03-03T01:05:04.335Z,95.06
2019-03-03T01:07:56.456Z,95.03
2019-03-03T01:10:44.330Z,94.62
2019-03-03T01:13:43.293Z,94.14
2019-03-03T01:16:30.786Z,94.02
2019-03-03T01:19:22.992Z,94.04
2019-03-03T01:22:17.659Z,94.22
2019-03-03T01:25:04.545Z,94.23
2019-03-03T01:27:34.473Z,94.62
2019-03-03T01:30:07.871Z,94.69
2019-03-03T01:32:37.775Z,94.84
2019-03-03T01:35:08.806Z,95.65
2019-03-03T01:37:39.061Z,96.06
2019-03-03T01:40:09.685Z,95.53
2019-03-03T01:42:39.854Z,94.77
2019-03-03T01:45:11.580Z,94.35
2019-03-03T01:47:41.554Z,92.71
2019-03-03T01:50:11.860Z,92.44
2019-03-03T01:52:41.918Z,91.04
2019-03-03T01:55:11.982Z,90.33
2019-03-03T01:57:42.221Z,90.74
2019-03-03T02:00:21.086Z,90.48
2019-03-03T02:02:51.205Z,90.13
2019-03-03T02:05:21.291Z,90.20
2019-03-03T02:07:51.274Z,90.02
2019-03-03T02:10:23.678Z,89.33
2019-03-03T02:12:53.779Z,89.46
2019-03-03T02:15:23.805Z,88.80
2019-03-03T02:17:53.805Z,88.54
2019-03-03T02:20:23.801Z,88.46
2019-03-03T02:22:53.806Z,87.94
2019-03-03T02:25:24.013Z,88.22
2019-03-03T02:27:53.910Z,88.10
2019-03-03T02:30:24.924Z,88.40
2019-03-03T02:32:54.917Z,88.56
2019-03-03T02:35:25.015Z,88.32
2019-03-03T02:37:54.943Z,88.53
2019-03-03T02:40:25.047Z,89.04
2019-03-03T02:42:54.971Z,89.63
2019-03-03T02:45:25.344Z,91.00
2019-03-03T02:47:55.323Z,92.13
2019-03-03T02:50:25.830Z,92.70
2019-03-03T02:52:55.732Z,92.83
2019-03-03T02:55:25.949Z,93.15
2019-03-03T02:57:55.876Z,93.42
2019-03-03T03:00:26.277Z,93.42
2019-03-03T03:02:57.756Z,93.60
2019-03-03T03:05:52.885Z,93.83
2019-03-03T03:08:30.288Z,94.64
2019-03-03T03:11:10.952Z,96.20
2019-03-03T03:13:46.850Z,95.78
2019-03-03T03:16:31.736Z,96.25
2019-03-03T03:19:08.690Z,97.65
2019-03-03T03:21:56.243Z,98.36
2019-03-03T03:24:53.115Z,98.70
2019-03-03T03:27:49.516Z,98.26
2019-03-03T03:30:53.584Z,97.22
2019-03-03T03:33:38.730Z,96.50
2019-03-03T03:36:36.931Z,95.92
2019-03-03T03:39:25.673Z,95.83
2019-03-03T03:42:05.819Z,94.75
2019-03-03T03:44:46.639Z,95.56
2019-03-03T03:47:37.226Z,95.05
2019-03-03T03:50:16.360Z,95.61
2019-03-03T03:53:08.350Z,96.50
2019-03-03T03:55:59.045Z,97.67
2019-03-03T03:58:33.828Z,98.12
2019-03-03T04:01:25.548Z,98.59
2019-03-03T04:04:26.491Z,99.69
2019-03-03T04:07:02.656Z,100.00
2019-03-03T04:09:48.481Z,100.00
2019-03-03T04:12:35.681Z,100.00
2019-03-03T04:15:14.269Z,100.00
2019-03-03T04:17:59.218Z,100.00
2019-03-03T04:20:46.456Z,100.00
2019-03-03T04:23:35.306Z,100.00
2019-03-03T04:26:29.989Z,100.00
2019-03-03T04:29:24.559Z,100.00
2019-03-03T04:32:22.209Z,100.00
2019-03-03T04:34:57.472Z,100.00
2019-03-03T04:37:40.033Z,100.00
2019-03-03T04:40:14.587Z,100.00
2019-03-03T04:43:02.243Z,100.00
2019-03-03T04:45:36.580Z,100.00
2019-03-03T04:48:21.767Z,100.00
2019-03-03T04:51:14.258Z,100.00
2019-03-03T04:54:01.559Z,100.00
2019-03-03T04:56:53.557Z,100.00
2019-03-03T05:00:00.352Z,100.00
2019-03-03T05:02:47.527Z,100.00
2019-03-03T05:05:34.883Z,100.00
2019-03-03T05:08:09.801Z,100.00
2019-03-03T05:10:58.547Z,100.00
2019-03-03T05:13:47.393Z,100.00
2019-03-03T05:16:31.527Z,100.00
2019-03-03T05:19:23.386Z,100.00
2019-03-03T05:21:53.271Z,100.00
2019-03-03T05:24:23.172Z,100.00
2019-03-03T05:26:53.135Z,100.00
2019-03-03T05:29:23.043Z,100.00
2019-03-03T05:31:53.007Z,100.00
2019-03-03T05:34:22.904Z,100.00
2019-03-03T05:36:52.779Z,100.00
2019-03-03T05:39:22.772Z,100.00
2019-03-03T05:41:52.660Z,100.00
2019-03-03T05:44:22.801Z,100.00
2019-03-03T05:46:52.717Z,100.00
2019-03-03T05:49:22.611Z,100.00
2019-03-03T05:51:52.560Z,100.00
2019-03-03T05:54:22.452Z,100.00
2019-03-03T05:56:52.366Z,100.00
2019-03-03T05:59:22.281Z,100.00
2019-03-03T06:01:52.201Z,100.00
2019-03-03T06:04:22.087Z,100.00
2019-03-03T06:06:52.047Z,100.00
2019-03-03T06:09:21.943Z,100.00
2019-03-03T06:11:51.906Z,100.00
2019-03-03T06:14:22.020Z,100.00
2019-03-03T06:16:51.921Z,100.00
2019-03-03T06:19:21.874Z,100.00
2019-03-03T06:21:51.748Z,100.00
2019-03-03T06:24:21.645Z,100.00
2019-03-03T06:26:51.516Z,100.00
2019-03-03T06:29:21.414Z,100.00
2019-03-03T06:31:51.307Z,100.00
2019-03-03T06:34:21.208Z,100.00
2019-03-03T06:36:51.195Z,100.00
2019-03-03T06:39:21.084Z,100.00
2019-03-03T06:41:50.976Z,100.00
2019-03-03T06:44:20.866Z,100.00
2019-03-03T06:46:50.751Z,100.00
2019-03-03T06:49:20.661Z,100.00
2019-03-03T06:51:50.587Z,100.00
2019-03-03T06:54:20.481Z,100.00
2019-03-03T06:56:50.372Z,99.64
2019-03-03T06:59:20.277Z,96.74
2019-03-03T07:01:50.421Z,93.61
2019-03-03T07:04:20.307Z,91.26
2019-03-03T07:06:50.258Z,90.33
2019-03-03T07:09:20.144Z,91.04
2019-03-03T07:11:50.261Z,92.39
2019-03-03T07:14:20.179Z,92.69
2019-03-03T07:16:50.062Z,93.54
2019-03-03T07:19:19.950Z,91.59
2019-03-03T07:21:50.692Z,88.09
2019-03-03T07:24:20.591Z,83.45
2019-03-03T07:26:50.539Z,77.33
2019-03-03T07:29:20.563Z,73.48
2019-03-03T07:31:50.451Z,69.97
2019-03-03T07:34:20.343Z,68.23
2019-03-03T07:36:50.324Z,70.42
2019-03-03T07:39:20.777Z,72.61
2019-03-03T07:41:50.738Z,75.63
2019-03-03T07:44:20.662Z,76.52
2019-03-03T07:46:50.541Z,76.85
2019-03-03T07:49:20.451Z,76.89
2019-03-03T07:51:50.645Z,70.45
2019-03-03T07:54:20.572Z,66.18
2019-03-03T07:56:50.465Z,59.83
2019-03-03T07:59:20.385Z,55.63
2019-03-03T08:01:50.363Z,52.39
2019-03-03T08:04:20.273Z,51.41
2019-03-03T08:06:50.163Z,49.59
2019-03-03T08:09:20.064Z,49.46
2019-03-03T08:11:49.984Z,50.12
2019-03-03T08:14:19.895Z,53.10
2019-03-03T08:16:49.807Z,53.15
2019-03-03T08:19:19.697Z,53.11
2019-03-03T08:21:49.601Z,61.65
2019-03-03T08:24:19.475Z,62.06
2019-03-03T08:26:49.356Z,63.05
2019-03-03T08:29:19.247Z,63.19
2019-03-03T08:31:49.418Z,67.74
2019-03-03T08:34:19.371Z,68.72
2019-03-03T08:36:49.344Z,67.53
2019-03-03T08:39:19.231Z,66.19
2019-03-03T08:41:53.259Z,65.56
2019-03-03T08:44:36.375Z,65.82
2019-03-03T08:47:28.252Z,66.99
2019-03-03T08:50:20.396Z,67.38
2019-03-03T08:53:07.599Z,65.82
2019-03-03T08:55:54.768Z,65.86
2019-03-03T08:58:30.689Z,64.61
2019-03-03T09:01:22.815Z,64.68
2019-03-03T09:04:02.313Z,64.88
2019-03-03T09:06:50.059Z,65.54
2019-03-03T09:09:35.118Z,67.72
2019-03-03T09:12:11.997Z,66.13
2019-03-03T09:14:59.592Z,65.74
2019-03-03T09:17:36.322Z,66.23
2019-03-03T09:20:26.657Z,66.80
2019-03-03T09:23:07.834Z,68.51
2019-03-03T09:25:55.425Z,67.18
2019-03-03T09:28:43.055Z,69.26
2019-03-03T09:31:41.334Z,69.47
2019-03-03T09:34:24.129Z,69.77
2019-03-03T09:37:09.138Z,68.42
2019-03-03T09:39:56.711Z,67.19
2019-03-03T09:42:51.898Z,66.27
2019-03-03T09:45:39.536Z,64.69
2019-03-03T09:48:31.543Z,65.61
2019-03-03T09:51:10.308Z,66.64
2019-03-03T09:53:47.067Z,66.86
2019-03-03T09:56:33.686Z,67.17
2019-03-03T09:59:30.938Z,67.00
2019-03-03T10:02:23.017Z,66.77
2019-03-03T10:46:55.880Z,65.48
2019-03-03T12:44:53.787Z,56.40
2019-03-03T13:36:09.412Z,54.96
2019-03-03T13:38:47.784Z,55.68
2019-03-03T13:47:53.178Z,56.46
2019-03-03T14:02:54.281Z,59.00
2019-03-03T14:05:25.016Z,58.74
2019-03-03T14:07:55.659Z,57.75
2019-03-03T14:13:57.704Z,56.86
2019-03-03T14:23:47.109Z,57.00
2019-03-03T14:26:17.161Z,56.47
2019-03-03T14:35:10.892Z,55.90
2019-03-03T14:37:40.960Z,55.72
2019-03-03T14:40:12.611Z,55.37
2019-03-03T15:05:47.884Z,55.74
2019-03-03T15:08:17.822Z,56.47
2019-03-03T15:10:47.708Z,56.10
2019-03-03T15:13:17.693Z,55.97
2019-03-03T15:15:47.671Z,56.20
2019-03-03T15:18:17.846Z,58.29
2019-03-03T15:20:47.920Z,58.84
2019-03-03T15:23:17.892Z,58.96
2019-03-03T15:25:47.979Z,58.84
2019-03-03T15:28:17.892Z,59.61
2019-03-03T15:30:47.938Z,59.64
2019-03-03T15:33:17.829Z,59.69
2019-03-03T15:35:47.734Z,59.91
2019-03-03T15:38:17.695Z,59.83
2019-03-03T15:40:47.804Z,59.33
2019-03-03T15:43:17.839Z,60.06
2019-03-03T15:45:47.757Z,60.28
2019-03-03T15:48:17.949Z,60.52
2019-03-03T15:50:47.902Z,60.73
2019-03-03T15:53:17.797Z,60.81
2019-03-03T15:55:47.774Z,60.58
2019-03-03T15:58:17.737Z,61.23
2019-03-03T16:00:47.642Z,61.20
2019-03-03T16:03:17.542Z,61.24
2019-03-03T16:05:47.446Z,61.33
2019-03-03T16:08:17.345Z,61.36
2019-03-03T16:10:47.278Z,61.88
2019-03-03T16:13:17.191Z,61.56
2019-03-03T16:15:47.102Z,62.03
2019-03-03T16:18:17.062Z,62.01
2019-03-03T16:20:47.054Z,62.20
2019-03-03T16:23:16.959Z,62.61
2019-03-03T16:25:47.117Z,63.59
2019-03-03T16:28:17.310Z,63.55
2019-03-03T16:30:47.218Z,64.17
2019-03-03T16:33:20.679Z,64.34
2019-03-03T16:35:48.707Z,64.27
2019-03-03T16:38:18.624Z,64.58
2019-03-03T16:40:48.513Z,64.45
2019-03-03T16:43:18.390Z,65.06
2019-03-03T16:45:48.551Z,65.00
2019-03-03T16:48:18.436Z,64.53
2019-03-03T16:54:02.452Z,65.30
2019-03-03T17:03:34.453Z,66.49
2019-03-03T17:06:04.450Z,66.40
2019-03-03T17:15:55.591Z,66.91
2019-03-03T17:18:25.863Z,67.17
2019-03-03T17:50:13.187Z,70.48
2019-03-03T17:52:44.836Z,71.02
2019-03-03T18:02:46.317Z,72.18
2019-03-03T18:05:18.178Z,72.74
2019-03-03T18:07:48.506Z,72.73
2019-03-03T18:10:18.693Z,73.39
2019-03-03T18:12:48.617Z,74.06
2019-03-03T18:15:18.810Z,73.41
2019-03-03T18:17:50.444Z,74.01
2019-03-03T18:20:20.772Z,74.25
2019-03-03T18:22:51.141Z,75.06
2019-03-03T18:25:21.151Z,75.76
2019-03-03T18:27:51.192Z,76.40
2019-03-03T18:30:22.558Z,76.67
2019-03-03T18:32:52.583Z,77.07
2019-03-03T18:35:22.607Z,77.51
2019-03-03T18:37:52.679Z,78.28
2019-03-03T18:40:22.820Z,79.50
2019-03-03T18:42:52.886Z,80.79
2019-03-03T18:45:22.920Z,81.49
2019-03-03T18:47:53.066Z,82.98
2019-03-03T18:50:23.033Z,83.15
2019-03-03T18:52:53.104Z,83.32
2019-03-03T18:55:23.124Z,83.72
2019-03-03T18:57:53.260Z,84.43
2019-03-03T19:00:24.798Z,84.27
2019-03-03T19:02:54.866Z,83.68
2019-03-03T19:05:24.937Z,82.66
2019-03-03T19:07:54.837Z,82.85
2019-03-03T19:10:25.593Z,82.78
2019-03-03T19:12:55.609Z,82.17
2019-03-03T19:15:25.681Z,82.61
2019-03-03T19:17:55.548Z,82.04
2019-03-03T21:29:30.157Z,85.42
2019-03-03T21:48:50.235Z,89.43
2019-03-03T22:17:17.388Z,90.28
2019-03-03T22:19:47.346Z,89.45
2019-03-03T22:22:17.236Z,88.85
2019-03-03T22:24:47.119Z,88.32
2019-03-03T22:27:17.017Z,87.76
2019-03-03T22:29:46.918Z,87.76
2019-03-03T22:32:16.813Z,86.83
2019-03-03T22:38:38.226Z,86.13
2019-03-03T22:41:08.148Z,84.69
2019-03-03T22:43:38.050Z,84.54
2019-03-03T22:57:37.361Z,83.00
2019-03-03T23:00:20.371Z,83.42
2019-03-03T23:02:50.341Z,82.69
2019-03-03T23:10:12.654Z,83.13
2019-03-03T23:20:16.897Z,86.59
2019-03-03T23:23:53.408Z,87.47
2019-03-03T23:26:23.717Z,87.72
2019-03-03T23:28:53.776Z,88.75
2019-03-03T23:35:14.755Z,90.04
2019-03-03T23:37:44.683Z,91.10
2019-03-03T23:40:14.782Z,91.11
2019-03-03T23:42:44.685Z,90.58
2019-03-03T23:49:05.539Z,90.30
2019-03-03T23:51:35.436Z,89.64
